Nyota — 9H9319 — position and weather

sailwx.info

Track history (hours):
 
Tides and Currents Weather Stations Pressure Air Temp Water Temp Dewpoint Dewpoint Depression Visibility Wind Speed Wind Dir Waves Ship Positions

Nyota

Last reported at 2018-Jun-25 11:36 UTC. Time now 2018-Jun-25 14:15 UTC.
Position N 43°30' E 007°05'.

Length 37 m; draft 2.5 m.

Type: Pleasure craft. MMSI: 249328000.

Date/timePositionNaut miles runAvg speedWind from/ knotsBaromVisibWave heightAir tempDewpointWater temp
2018-Jun-25 11:36N 43°30' E 007°05'220.7
2018-Jun-25 11:31N 43°30' E 007°03'  
2018-Jun-21 11:56N 43°33' E 007°01'0 0.0
2018-Jun-21 11:27N 43°33' E 007°01'0 0.1
2018-Jun-21 10:52N 43°33' E 007°01'1 1.6
2018-Jun-21 10:27N 43°32' E 007°01'0 0.0
2018-Jun-21 10:00N 43°32' E 007°01'3 5.9
2018-Jun-21 09:29N 43°30' E 007°03'1819.8
2018-Jun-21 08:34N 43°40' E 007°24'415.3
2018-Jun-21 08:18N 43°44' E 007°26'65 3.8
2018-Jun-20 15:10N 44°13' E 008°47'423.5
2018-Jun-20 15:00N 44°16' E 008°51'917.6
2018-Jun-20 14:30N 44°24' E 008°56'1 1.7
2018-Jun-20 14:00N 44°25' E 008°55'0 0.1
2018-Jun-20 13:30N 44°25' E 008°55'2 4.2
2018-Jun-20 13:00N 44°23' E 008°57'1020.6
2018-Jun-20 12:30N 44°17' E 009°09'3 0.1
2018-Jun-19 15:59N 44°17' E 009°13'1223.9
2018-Jun-19 15:29N 44°11' E 008°59'1224.5
2018-Jun-19 15:00N 44°06' E 008°45'1324.9
2018-Jun-19 14:29N 43°59' E 008°29'  
2018-Jun-17 10:12N 43°29' E 007°02'314.0
2018-Jun-17 10:00N 43°32' E 007°01'1 1.5
2018-Jun-17 09:30N 43°33' E 007°02'0 0.0
2018-Jun-17 08:59N 43°33' E 007°02'0 0.0
2018-Jun-17 08:29N 43°33' E 007°02'0 0.0
2018-Jun-17 07:59N 43°33' E 007°02'0 0.0
2018-Jun-17 07:29N 43°33' E 007°02'0 0.0
2018-Jun-17 06:59N 43°33' E 007°02'0 0.0
2018-Jun-17 05:35N 43°33' E 007°02'0 0.0
2018-Jun-17 05:20N 43°33' E 007°02'0 0.0
2018-Jun-17 04:50N 43°33' E 007°02'0 0.0
2018-Jun-17 04:23N 43°33' E 007°02'0 0.0
2018-Jun-17 03:53N 43°33' E 007°02'0 0.0
2018-Jun-17 03:23N 43°33' E 007°02'0 0.0
2018-Jun-17 02:50N 43°33' E 007°02'0 0.0
2018-Jun-17 02:08N 43°33' E 007°02'0 0.0
2018-Jun-17 01:53N 43°33' E 007°02'0 0.0
2018-Jun-17 01:26N 43°33' E 007°02'0 0.0
2018-Jun-17 00:56N 43°33' E 007°02'0 0.0
2018-Jun-17 00:26N 43°33' E 007°02'0 0.0
2018-Jun-16 23:56N 43°33' E 007°02'0 0.0
2018-Jun-16 23:26N 43°33' E 007°02'0 0.0
2018-Jun-16 22:56N 43°33' E 007°02'0 0.0
2018-Jun-16 22:29N 43°33' E 007°02'0 0.0
2018-Jun-16 21:59N 43°33' E 007°02'0 0.0
2018-Jun-16 21:29N 43°33' E 007°02'0 0.0
2018-Jun-16 20:59N 43°33' E 007°02'0 0.0
2018-Jun-16 20:29N 43°33' E 007°02'0 0.0
2018-Jun-16 19:59N 43°33' E 007°02'0 0.0
2018-Jun-16 19:29N 43°33' E 007°02'0 0.0
2018-Jun-16 18:59N 43°33' E 007°02'0 0.0
2018-Jun-16 18:17N 43°33' E 007°02'0 0.0
2018-Jun-16 17:44N 43°33' E 007°02'0 0.0
2018-Jun-16 17:29N 43°33' E 007°02'0 0.0
2018-Jun-16 16:59N 43°33' E 007°02'0 0.0
2018-Jun-16 16:29N 43°33' E 007°02'0 0.0
2018-Jun-16 15:59N 43°33' E 007°02'0 0.0
2018-Jun-16 15:20N 43°33' E 007°02'0 0.0
2018-Jun-16 14:50N 43°33' E 007°02'0 0.0
2018-Jun-16 14:20N 43°33' E 007°02'0 0.0
2018-Jun-16 13:53N 43°33' E 007°02'0 0.0
2018-Jun-16 13:20N 43°33' E 007°02'0 0.0
2018-Jun-16 12:53N 43°33' E 007°02'0 0.0
2018-Jun-16 12:23N 43°33' E 007°02'0 0.0
2018-Jun-16 11:53N 43°33' E 007°02'0 0.0
2018-Jun-16 11:23N 43°33' E 007°02'0 0.0
2018-Jun-16 10:56N 43°33' E 007°02'0 0.0
2018-Jun-16 10:26N 43°33' E 007°02'0 0.0
2018-Jun-16 09:56N 43°33' E 007°02'0 0.0
2018-Jun-16 09:26N 43°33' E 007°02'0 0.0
2018-Jun-16 08:56N 43°33' E 007°02'0 0.0
2018-Jun-16 08:26N 43°33' E 007°02'0 0.0
2018-Jun-16 07:59N 43°33' E 007°02'0 0.0
2018-Jun-16 07:26N 43°33' E 007°02'0 0.0
2018-Jun-16 06:59N 43°33' E 007°02'0 0.0
2018-Jun-16 06:29N 43°33' E 007°02'0 0.0
2018-Jun-16 05:59N 43°33' E 007°02'0 0.0
2018-Jun-16 05:29N 43°33' E 007°02'0 0.0
2018-Jun-16 04:59N 43°33' E 007°02'0 0.0
2018-Jun-16 04:29N 43°33' E 007°02'0 0.0
2018-Jun-16 03:59N 43°33' E 007°02'0 0.0
2018-Jun-16 03:29N 43°33' E 007°02'0 0.0
2018-Jun-16 02:59N 43°33' E 007°02'0 0.0
2018-Jun-16 02:29N 43°33' E 007°02'0 0.0
2018-Jun-16 01:59N 43°33' E 007°02'0 0.0
2018-Jun-16 01:20N 43°33' E 007°02'0 0.0
2018-Jun-16 00:50N 43°33' E 007°02'0 0.0
2018-Jun-16 00:20N 43°33' E 007°02'0 0.0
2018-Jun-15 23:53N 43°33' E 007°02'0 0.0
2018-Jun-15 23:23N 43°33' E 007°02'0 0.0
2018-Jun-15 22:53N 43°33' E 007°02'0 0.0
2018-Jun-15 22:23N 43°33' E 007°02'0 0.0
2018-Jun-15 21:53N 43°33' E 007°02'0 0.0
2018-Jun-15 21:20N 43°33' E 007°02'0 0.0
2018-Jun-15 20:56N 43°33' E 007°02'0 0.0
2018-Jun-15 20:26N 43°33' E 007°02'0 0.0
2018-Jun-15 19:50N 43°33' E 007°02'0 0.0
2018-Jun-15 19:26N 43°33' E 007°02'0 0.0
2018-Jun-15 18:56N 43°33' E 007°02'0 0.0
2018-Jun-15 18:26N 43°33' E 007°02'0 0.0
2018-Jun-15 17:59N 43°33' E 007°02'0 0.0
2018-Jun-15 17:29N 43°33' E 007°02'0 0.0
2018-Jun-15 16:59N 43°33' E 007°02'0 0.0
2018-Jun-15 16:29N 43°33' E 007°02'0 0.0
2018-Jun-15 15:59N 43°33' E 007°02'0 0.0
2018-Jun-15 15:29N 43°33' E 007°02'0 0.0
2018-Jun-15 14:59N 43°33' E 007°02'0 0.0
2018-Jun-15 14:29N 43°33' E 007°02'0 0.0
2018-Jun-15 13:59N 43°33' E 007°02'0 0.0
2018-Jun-15 13:29N 43°33' E 007°02'0 0.0
2018-Jun-15 12:59N 43°33' E 007°02'0 0.0
2018-Jun-15 12:29N 43°33' E 007°02'0 0.0
2018-Jun-15 11:59N 43°33' E 007°02'  
Track history (hours):
 
Tides and Currents Weather Stations Pressure Air Temp Water Temp Dewpoint Dewpoint Depression Visibility Wind Speed Wind Dir Waves Ship Positions

Nyota

Last reported at 2018-Jun-25 11:36 UTC. Time now 2018-Jun-25 14:15 UTC.
Position N 43°30' E 007°05'.

Length 37 m; draft 2.5 m.

Type: Pleasure craft. MMSI: 249328000.

Date/timePositionNaut miles runAvg speedWind from/ knotsBaromVisibWave heightAir tempDewpointWater temp
2018-Jun-25 11:36N 43°30' E 007°05'220.7
2018-Jun-25 11:31N 43°30' E 007°03'  
2018-Jun-21 11:56N 43°33' E 007°01'0 0.0
2018-Jun-21 11:27N 43°33' E 007°01'0 0.1
2018-Jun-21 10:52N 43°33' E 007°01'1 1.6
2018-Jun-21 10:27N 43°32' E 007°01'0 0.0
2018-Jun-21 10:00N 43°32' E 007°01'3 5.9
2018-Jun-21 09:29N 43°30' E 007°03'1819.8
2018-Jun-21 08:34N 43°40' E 007°24'415.3
2018-Jun-21 08:18N 43°44' E 007°26'65 3.8
2018-Jun-20 15:10N 44°13' E 008°47'423.5
2018-Jun-20 15:00N 44°16' E 008°51'917.6
2018-Jun-20 14:30N 44°24' E 008°56'1 1.7
2018-Jun-20 14:00N 44°25' E 008°55'0 0.1
2018-Jun-20 13:30N 44°25' E 008°55'2 4.2
2018-Jun-20 13:00N 44°23' E 008°57'1020.6
2018-Jun-20 12:30N 44°17' E 009°09'3 0.1
2018-Jun-19 15:59N 44°17' E 009°13'1223.9
2018-Jun-19 15:29N 44°11' E 008°59'1224.5
2018-Jun-19 15:00N 44°06' E 008°45'1324.9
2018-Jun-19 14:29N 43°59' E 008°29'  
2018-Jun-17 10:12N 43°29' E 007°02'314.0
2018-Jun-17 10:00N 43°32' E 007°01'1 1.5
2018-Jun-17 09:30N 43°33' E 007°02'0 0.0
2018-Jun-17 08:59N 43°33' E 007°02'0 0.0
2018-Jun-17 08:29N 43°33' E 007°02'0 0.0
2018-Jun-17 07:59N 43°33' E 007°02'0 0.0
2018-Jun-17 07:29N 43°33' E 007°02'0 0.0
2018-Jun-17 06:59N 43°33' E 007°02'0 0.0
2018-Jun-17 05:35N 43°33' E 007°02'0 0.0
2018-Jun-17 05:20N 43°33' E 007°02'0 0.0
2018-Jun-17 04:50N 43°33' E 007°02'0 0.0
2018-Jun-17 04:23N 43°33' E 007°02'0 0.0
2018-Jun-17 03:53N 43°33' E 007°02'0 0.0
2018-Jun-17 03:23N 43°33' E 007°02'0 0.0
2018-Jun-17 02:50N 43°33' E 007°02'0 0.0
2018-Jun-17 02:08N 43°33' E 007°02'0 0.0
2018-Jun-17 01:53N 43°33' E 007°02'0 0.0
2018-Jun-17 01:26N 43°33' E 007°02'0 0.0
2018-Jun-17 00:56N 43°33' E 007°02'0 0.0
2018-Jun-17 00:26N 43°33' E 007°02'0 0.0
2018-Jun-16 23:56N 43°33' E 007°02'0 0.0
2018-Jun-16 23:26N 43°33' E 007°02'0 0.0
2018-Jun-16 22:56N 43°33' E 007°02'0 0.0
2018-Jun-16 22:29N 43°33' E 007°02'0 0.0
2018-Jun-16 21:59N 43°33' E 007°02'0 0.0
2018-Jun-16 21:29N 43°33' E 007°02'0 0.0
2018-Jun-16 20:59N 43°33' E 007°02'0 0.0
2018-Jun-16 20:29N 43°33' E 007°02'0 0.0
2018-Jun-16 19:59N 43°33' E 007°02'0 0.0
2018-Jun-16 19:29N 43°33' E 007°02'0 0.0
2018-Jun-16 18:59N 43°33' E 007°02'0 0.0
2018-Jun-16 18:17N 43°33' E 007°02'0 0.0
2018-Jun-16 17:44N 43°33' E 007°02'0 0.0
2018-Jun-16 17:29N 43°33' E 007°02'0 0.0
2018-Jun-16 16:59N 43°33' E 007°02'0 0.0
2018-Jun-16 16:29N 43°33' E 007°02'0 0.0
2018-Jun-16 15:59N 43°33' E 007°02'0 0.0
2018-Jun-16 15:20N 43°33' E 007°02'0 0.0
2018-Jun-16 14:50N 43°33' E 007°02'0 0.0
2018-Jun-16 14:20N 43°33' E 007°02'0 0.0
2018-Jun-16 13:53N 43°33' E 007°02'0 0.0
2018-Jun-16 13:20N 43°33' E 007°02'0 0.0
2018-Jun-16 12:53N 43°33' E 007°02'0 0.0
2018-Jun-16 12:23N 43°33' E 007°02'0 0.0
2018-Jun-16 11:53N 43°33' E 007°02'0 0.0
2018-Jun-16 11:23N 43°33' E 007°02'0 0.0
2018-Jun-16 10:56N 43°33' E 007°02'0 0.0
2018-Jun-16 10:26N 43°33' E 007°02'0 0.0
2018-Jun-16 09:56N 43°33' E 007°02'0 0.0
2018-Jun-16 09:26N 43°33' E 007°02'0 0.0
2018-Jun-16 08:56N 43°33' E 007°02'0 0.0
2018-Jun-16 08:26N 43°33' E 007°02'0 0.0
2018-Jun-16 07:59N 43°33' E 007°02'0 0.0
2018-Jun-16 07:26N 43°33' E 007°02'0 0.0
2018-Jun-16 06:59N 43°33' E 007°02'0 0.0
2018-Jun-16 06:29N 43°33' E 007°02'0 0.0
2018-Jun-16 05:59N 43°33' E 007°02'0 0.0
2018-Jun-16 05:29N 43°33' E 007°02'0 0.0
2018-Jun-16 04:59N 43°33' E 007°02'0 0.0
2018-Jun-16 04:29N 43°33' E 007°02'0 0.0
2018-Jun-16 03:59N 43°33' E 007°02'0 0.0
2018-Jun-16 03:29N 43°33' E 007°02'0 0.0
2018-Jun-16 02:59N 43°33' E 007°02'0 0.0
2018-Jun-16 02:29N 43°33' E 007°02'0 0.0
2018-Jun-16 01:59N 43°33' E 007°02'0 0.0
2018-Jun-16 01:20N 43°33' E 007°02'0 0.0
2018-Jun-16 00:50N 43°33' E 007°02'0 0.0
2018-Jun-16 00:20N 43°33' E 007°02'0 0.0
2018-Jun-15 23:53N 43°33' E 007°02'0 0.0
2018-Jun-15 23:23N 43°33' E 007°02'0 0.0
2018-Jun-15 22:53N 43°33' E 007°02'0 0.0
2018-Jun-15 22:23N 43°33' E 007°02'0 0.0
2018-Jun-15 21:53N 43°33' E 007°02'0 0.0
2018-Jun-15 21:20N 43°33' E 007°02'0 0.0
2018-Jun-15 20:56N 43°33' E 007°02'0 0.0
2018-Jun-15 20:26N 43°33' E 007°02'0 0.0
2018-Jun-15 19:50N 43°33' E 007°02'0 0.0
2018-Jun-15 19:26N 43°33' E 007°02'0 0.0
2018-Jun-15 18:56N 43°33' E 007°02'0 0.0
2018-Jun-15 18:26N 43°33' E 007°02'0 0.0
2018-Jun-15 17:59N 43°33' E 007°02'0 0.0
2018-Jun-15 17:29N 43°33' E 007°02'0 0.0
2018-Jun-15 16:59N 43°33' E 007°02'0 0.0
2018-Jun-15 16:29N 43°33' E 007°02'0 0.0
2018-Jun-15 15:59N 43°33' E 007°02'0 0.0
2018-Jun-15 15:29N 43°33' E 007°02'0 0.0
2018-Jun-15 14:59N 43°33' E 007°02'0 0.0
2018-Jun-15 14:29N 43°33' E 007°02'0 0.0
2018-Jun-15 13:59N 43°33' E 007°02'0 0.0
2018-Jun-15 13:29N 43°33' E 007°02'0 0.0
2018-Jun-15 12:59N 43°33' E 007°02'0 0.0
2018-Jun-15 12:29N 43°33' E 007°02'0 0.0
2018-Jun-15 11:59N 43°33' E 007°02'  

Dump ship's entire track history